sensor_id;sensor_type;location;lat;lon;timestamp;P1;durP1;ratioP1;P2;durP2;ratioP2
50367;SDS011;36281;34.132;-118.018;2023-10-09T00:00:34;6.15;;;4.47;;
50367;SDS011;36281;34.132;-118.018;2023-10-09T00:03:20;5.28;;;4.30;;
50367;SDS011;36281;34.132;-118.018;2023-10-09T00:05:52;5.47;;;4.47;;
50367;SDS011;36281;34.132;-118.018;2023-10-09T00:08:21;6.60;;;4.70;;
50367;SDS011;36281;34.132;-118.018;2023-10-09T00:11:00;6.82;;;4.75;;
50367;SDS011;36281;34.132;-118.018;2023-10-09T00:13:44;5.20;;;4.70;;
50367;SDS011;36281;34.132;-118.018;2023-10-09T00:16:19;6.67;;;4.23;;
50367;SDS011;36281;34.132;-118.018;2023-10-09T00:19:13;5.68;;;4.30;;
50367;SDS011;36281;34.132;-118.018;2023-10-09T00:21:47;6.32;;;4.25;;
50367;SDS011;36281;34.132;-118.018;2023-10-09T00:24:17;5.75;;;4.55;;
50367;SDS011;36281;34.132;-118.018;2023-10-09T00:26:53;7.13;;;4.90;;
50367;SDS011;36281;34.132;-118.018;2023-10-09T00:29:40;6.05;;;5.30;;
50367;SDS011;36281;34.132;-118.018;2023-10-09T00:32:13;11.77;;;9.88;;
50367;SDS011;36281;34.132;-118.018;2023-10-09T00:35:01;14.60;;;12.95;;
50367;SDS011;36281;34.132;-118.018;2023-10-09T00:37:51;14.43;;;13.02;;
50367;SDS011;36281;34.132;-118.018;2023-10-09T00:40:27;8.70;;;7.63;;
50367;SDS011;36281;34.132;-118.018;2023-10-09T00:45:34;22.27;;;19.95;;
50367;SDS011;36281;34.132;-118.018;2023-10-09T00:48:07;12.35;;;11.10;;
50367;SDS011;36281;34.132;-118.018;2023-10-09T00:50:39;35.35;;;29.45;;
50367;SDS011;36281;34.132;-118.018;2023-10-09T00:53:15;20.23;;;18.23;;
50367;SDS011;36281;34.132;-118.018;2023-10-09T00:55:46;23.38;;;21.17;;
50367;SDS011;36281;34.132;-118.018;2023-10-09T00:58:23;15.15;;;11.95;;
50367;SDS011;36281;34.132;-118.018;2023-10-09T01:00:59;21.50;;;19.10;;
50367;SDS011;36281;34.132;-118.018;2023-10-09T01:03:31;15.75;;;11.77;;
50367;SDS011;36281;34.132;-118.018;2023-10-09T01:06:03;12.95;;;9.07;;
50367;SDS011;36281;34.132;-118.018;2023-10-09T01:08:39;11.63;;;7.82;;
50367;SDS011;36281;34.132;-118.018;2023-10-09T01:11:10;9.00;;;7.25;;
50367;SDS011;36281;34.132;-118.018;2023-10-09T01:13:58;13.85;;;9.73;;
50367;SDS011;36281;34.132;-118.018;2023-10-09T01:16:36;10.07;;;8.75;;
50367;SDS011;36281;34.132;-118.018;2023-10-09T01:19:10;19.52;;;13.95;;
50367;SDS011;36281;34.132;-118.018;2023-10-09T01:22:10;12.43;;;10.45;;
50367;SDS011;36281;34.132;-118.018;2023-10-09T01:24:45;18.27;;;16.35;;
50367;SDS011;36281;34.132;-118.018;2023-10-09T01:27:17;10.15;;;7.20;;
50367;SDS011;36281;34.132;-118.018;2023-10-09T01:29:50;8.35;;;6.70;;
50367;SDS011;36281;34.132;-118.018;2023-10-09T01:32:19;10.85;;;9.18;;
50367;SDS011;36281;34.132;-118.018;2023-10-09T01:34:49;7.63;;;6.05;;
50367;SDS011;36281;34.132;-118.018;2023-10-09T01:37:19;51.03;;;45.75;;
50367;SDS011;36281;34.132;-118.018;2023-10-09T01:40:00;13.20;;;11.00;;
50367;SDS011;36281;34.132;-118.018;2023-10-09T01:42:49;16.17;;;14.48;;
50367;SDS011;36281;34.132;-118.018;2023-10-09T01:45:18;39.20;;;30.05;;
50367;SDS011;36281;34.132;-118.018;2023-10-09T01:47:47;14.93;;;11.80;;
50367;SDS011;36281;34.132;-118.018;2023-10-09T01:50:21;15.30;;;11.70;;
50367;SDS011;36281;34.132;-118.018;2023-10-09T01:53:03;9.93;;;7.00;;
50367;SDS011;36281;34.132;-118.018;2023-10-09T01:55:37;14.90;;;11.45;;
50367;SDS011;36281;34.132;-118.018;2023-10-09T01:58:08;12.45;;;8.93;;
50367;SDS011;36281;34.132;-118.018;2023-10-09T02:00:45;14.20;;;10.77;;
50367;SDS011;36281;34.132;-118.018;2023-10-09T02:03:33;11.43;;;8.77;;
50367;SDS011;36281;34.132;-118.018;2023-10-09T02:06:05;13.27;;;11.88;;
50367;SDS011;36281;34.132;-118.018;2023-10-09T02:08:53;15.20;;;8.15;;
50367;SDS011;36281;34.132;-118.018;2023-10-09T02:11:24;12.85;;;8.30;;
50367;SDS011;36281;34.132;-118.018;2023-10-09T02:14:04;13.10;;;7.85;;
50367;SDS011;36281;34.132;-118.018;2023-10-09T02:16:47;12.15;;;10.18;;
50367;SDS011;36281;34.132;-118.018;2023-10-09T02:19:36;26.75;;;19.52;;
50367;SDS011;36281;34.132;-118.018;2023-10-09T02:22:08;24.95;;;17.02;;
50367;SDS011;36281;34.132;-118.018;2023-10-09T02:24:40;11.23;;;8.77;;
50367;SDS011;36281;34.132;-118.018;2023-10-09T02:27:18;11.43;;;8.70;;
50367;SDS011;36281;34.132;-118.018;2023-10-09T02:30:06;12.73;;;8.25;;
50367;SDS011;36281;34.132;-118.018;2023-10-09T02:32:48;9.57;;;8.13;;
50367;SDS011;36281;34.132;-118.018;2023-10-09T02:35:20;10.63;;;8.57;;
50367;SDS011;36281;34.132;-118.018;2023-10-09T02:38:10;10.65;;;9.27;;
50367;SDS011;36281;34.132;-118.018;2023-10-09T02:40:42;10.70;;;9.00;;
50367;SDS011;36281;34.132;-118.018;2023-10-09T02:43:31;12.38;;;9.60;;
50367;SDS011;36281;34.132;-118.018;2023-10-09T02:46:18;46.33;;;33.75;;
50367;SDS011;36281;34.132;-118.018;2023-10-09T02:48:48;13.60;;;12.02;;
50367;SDS011;36281;34.132;-118.018;2023-10-09T02:51:18;15.20;;;10.50;;
50367;SDS011;36281;34.132;-118.018;2023-10-09T02:56:24;12.45;;;9.80;;
50367;SDS011;36281;34.132;-118.018;2023-10-09T02:59:15;11.55;;;9.80;;
50367;SDS011;36281;34.132;-118.018;2023-10-09T03:01:44;10.98;;;9.80;;
50367;SDS011;36281;34.132;-118.018;2023-10-09T03:04:13;15.20;;;10.73;;
50367;SDS011;36281;34.132;-118.018;2023-10-09T03:06:43;11.10;;;9.90;;
50367;SDS011;36281;34.132;-118.018;2023-10-09T03:09:19;11.45;;;9.90;;
50367;SDS011;36281;34.132;-118.018;2023-10-09T03:11:56;12.20;;;9.38;;
50367;SDS011;36281;34.132;-118.018;2023-10-09T03:14:35;11.13;;;9.65;;
50367;SDS011;36281;34.132;-118.018;2023-10-09T03:17:06;13.02;;;10.40;;
50367;SDS011;36281;34.132;-118.018;2023-10-09T03:19:39;11.38;;;10.20;;
50367;SDS011;36281;34.132;-118.018;2023-10-09T03:22:11;11.32;;;10.13;;
50367;SDS011;36281;34.132;-118.018;2023-10-09T03:24:40;10.75;;;9.68;;
50367;SDS011;36281;34.132;-118.018;2023-10-09T03:27:17;11.43;;;9.48;;
50367;SDS011;36281;34.132;-118.018;2023-10-09T03:29:47;12.32;;;9.88;;
50367;SDS011;36281;34.132;-118.018;2023-10-09T03:32:21;11.73;;;9.52;;
50367;SDS011;36281;34.132;-118.018;2023-10-09T03:34:51;11.25;;;9.30;;
50367;SDS011;36281;34.132;-118.018;2023-10-09T03:37:23;11.38;;;10.18;;
50367;SDS011;36281;34.132;-118.018;2023-10-09T03:40:04;11.27;;;9.93;;
50367;SDS011;36281;34.132;-118.018;2023-10-09T03:42:42;12.23;;;9.50;;
50367;SDS011;36281;34.132;-118.018;2023-10-09T03:45:13;13.43;;;9.68;;
50367;SDS011;36281;34.132;-118.018;2023-10-09T03:47:55;11.73;;;9.88;;
50367;SDS011;36281;34.132;-118.018;2023-10-09T03:50:51;13.07;;;10.20;;
50367;SDS011;36281;34.132;-118.018;2023-10-09T03:53:36;12.85;;;10.93;;
50367;SDS011;36281;34.132;-118.018;2023-10-09T03:56:09;11.48;;;10.13;;
50367;SDS011;36281;34.132;-118.018;2023-10-09T03:58:41;11.13;;;9.90;;
50367;SDS011;36281;34.132;-118.018;2023-10-09T04:01:14;12.75;;;10.10;;
50367;SDS011;36281;34.132;-118.018;2023-10-09T04:03:56;13.10;;;10.75;;
50367;SDS011;36281;34.132;-118.018;2023-10-09T04:06:29;15.18;;;10.48;;
50367;SDS011;36281;34.132;-118.018;2023-10-09T04:09:02;15.90;;;11.18;;
50367;SDS011;36281;34.132;-118.018;2023-10-09T04:11:48;15.95;;;12.55;;
50367;SDS011;36281;34.132;-118.018;2023-10-09T04:14:27;14.30;;;12.10;;
50367;SDS011;36281;34.132;-118.018;2023-10-09T04:17:03;14.73;;;12.65;;
50367;SDS011;36281;34.132;-118.018;2023-10-09T04:19:36;15.25;;;11.88;;
50367;SDS011;36281;34.132;-118.018;2023-10-09T04:22:15;16.20;;;12.80;;
50367;SDS011;36281;34.132;-118.018;2023-10-09T04:24:55;16.77;;;12.30;;
50367;SDS011;36281;34.132;-118.018;2023-10-09T04:27:24;15.70;;;12.43;;
50367;SDS011;36281;34.132;-118.018;2023-10-09T04:30:04;20.38;;;13.63;;
50367;SDS011;36281;34.132;-118.018;2023-10-09T04:32:36;15.75;;;13.07;;
50367;SDS011;36281;34.132;-118.018;2023-10-09T04:35:08;16.95;;;12.48;;
50367;SDS011;36281;34.132;-118.018;2023-10-09T04:37:49;15.77;;;12.93;;
50367;SDS011;36281;34.132;-118.018;2023-10-09T04:40:32;16.92;;;12.85;;
50367;SDS011;36281;34.132;-118.018;2023-10-09T04:43:13;16.65;;;13.30;;
50367;SDS011;36281;34.132;-118.018;2023-10-09T04:45:48;16.23;;;13.33;;
50367;SDS011;36281;34.132;-118.018;2023-10-09T04:48:42;19.20;;;13.60;;
50367;SDS011;36281;34.132;-118.018;2023-10-09T04:51:14;20.63;;;14.40;;
50367;SDS011;36281;34.132;-118.018;2023-10-09T04:53:49;17.13;;;14.00;;
50367;SDS011;36281;34.132;-118.018;2023-10-09T04:56:39;15.77;;;14.00;;
50367;SDS011;36281;34.132;-118.018;2023-10-09T04:59:28;16.13;;;13.82;;
50367;SDS011;36281;34.132;-118.018;2023-10-09T05:01:57;15.15;;;13.50;;
50367;SDS011;36281;34.132;-118.018;2023-10-09T05:04:28;17.40;;;13.15;;
50367;SDS011;36281;34.132;-118.018;2023-10-09T05:07:06;16.73;;;12.77;;
50367;SDS011;36281;34.132;-118.018;2023-10-09T05:09:56;16.50;;;14.20;;
50367;SDS011;36281;34.132;-118.018;2023-10-09T05:12:37;15.55;;;13.52;;
50367;SDS011;36281;34.132;-118.018;2023-10-09T05:15:14;16.58;;;14.10;;
50367;SDS011;36281;34.132;-118.018;2023-10-09T05:17:43;18.05;;;14.77;;
50367;SDS011;36281;34.132;-118.018;2023-10-09T05:20:21;15.55;;;13.45;;
50367;SDS011;36281;34.132;-118.018;2023-10-09T05:22:53;18.00;;;13.85;;
50367;SDS011;36281;34.132;-118.018;2023-10-09T05:25:26;15.63;;;13.35;;
50367;SDS011;36281;34.132;-118.018;2023-10-09T05:28:18;18.73;;;14.13;;
50367;SDS011;36281;34.132;-118.018;2023-10-09T05:30:58;20.10;;;14.65;;
50367;SDS011;36281;34.132;-118.018;2023-10-09T05:33:35;19.40;;;14.43;;
50367;SDS011;36281;34.132;-118.018;2023-10-09T05:36:07;17.13;;;13.80;;
50367;SDS011;36281;34.132;-118.018;2023-10-09T05:39:05;17.73;;;13.82;;
50367;SDS011;36281;34.132;-118.018;2023-10-09T05:41:53;18.38;;;13.75;;
50367;SDS011;36281;34.132;-118.018;2023-10-09T05:44:27;17.90;;;13.52;;
50367;SDS011;36281;34.132;-118.018;2023-10-09T05:47:14;15.77;;;13.88;;
50367;SDS011;36281;34.132;-118.018;2023-10-09T05:50:02;16.45;;;13.48;;
50367;SDS011;36281;34.132;-118.018;2023-10-09T05:52:39;14.90;;;13.27;;
50367;SDS011;36281;34.132;-118.018;2023-10-09T05:55:08;19.70;;;14.30;;
50367;SDS011;36281;34.132;-118.018;2023-10-09T05:57:55;19.73;;;14.15;;
50367;SDS011;36281;34.132;-118.018;2023-10-09T06:00:42;21.33;;;14.90;;
50367;SDS011;36281;34.132;-118.018;2023-10-09T06:03:29;18.05;;;14.60;;
50367;SDS011;36281;34.132;-118.018;2023-10-09T06:06:17;17.67;;;14.98;;
50367;SDS011;36281;34.132;-118.018;2023-10-09T06:09:03;17.88;;;14.63;;
50367;SDS011;36281;34.132;-118.018;2023-10-09T06:11:43;18.25;;;15.05;;
50367;SDS011;36281;34.132;-118.018;2023-10-09T06:14:23;20.13;;;15.40;;
50367;SDS011;36281;34.132;-118.018;2023-10-09T06:16:58;20.17;;;15.38;;
50367;SDS011;36281;34.132;-118.018;2023-10-09T06:19:39;19.08;;;15.85;;
50367;SDS011;36281;34.132;-118.018;2023-10-09T06:22:11;21.52;;;16.02;;
50367;SDS011;36281;34.132;-118.018;2023-10-09T06:24:41;17.83;;;15.27;;
50367;SDS011;36281;34.132;-118.018;2023-10-09T06:27:22;19.58;;;15.35;;
50367;SDS011;36281;34.132;-118.018;2023-10-09T06:30:14;18.98;;;15.35;;
50367;SDS011;36281;34.132;-118.018;2023-10-09T06:32:46;20.65;;;15.40;;
50367;SDS011;36281;34.132;-118.018;2023-10-09T06:35:47;18.52;;;14.82;;
50367;SDS011;36281;34.132;-118.018;2023-10-09T06:38:36;17.63;;;14.82;;
50367;SDS011;36281;34.132;-118.018;2023-10-09T06:41:41;20.98;;;16.15;;
50367;SDS011;36281;34.132;-118.018;2023-10-09T06:44:13;22.50;;;15.95;;
50367;SDS011;36281;34.132;-118.018;2023-10-09T06:47:01;18.48;;;14.00;;
50367;SDS011;36281;34.132;-118.018;2023-10-09T06:49:35;18.05;;;15.48;;
50367;SDS011;36281;34.132;-118.018;2023-10-09T06:52:05;22.45;;;15.77;;
50367;SDS011;36281;34.132;-118.018;2023-10-09T06:54:43;20.83;;;15.30;;
50367;SDS011;36281;34.132;-118.018;2023-10-09T06:57:19;21.75;;;15.20;;
50367;SDS011;36281;34.132;-118.018;2023-10-09T07:00:09;18.52;;;14.52;;
50367;SDS011;36281;34.132;-118.018;2023-10-09T07:03:16;22.70;;;16.48;;
50367;SDS011;36281;34.132;-118.018;2023-10-09T07:05:47;21.45;;;15.82;;
50367;SDS011;36281;34.132;-118.018;2023-10-09T07:08:32;23.70;;;16.55;;
50367;SDS011;36281;34.132;-118.018;2023-10-09T07:11:05;18.75;;;16.02;;
50367;SDS011;36281;34.132;-118.018;2023-10-09T07:14:11;21.88;;;16.60;;
50367;SDS011;36281;34.132;-118.018;2023-10-09T07:17:00;22.33;;;17.08;;
50367;SDS011;36281;34.132;-118.018;2023-10-09T07:19:43;23.45;;;16.02;;
50367;SDS011;36281;34.132;-118.018;2023-10-09T07:22:19;23.67;;;17.45;;
50367;SDS011;36281;34.132;-118.018;2023-10-09T07:24:48;19.52;;;16.48;;
50367;SDS011;36281;34.132;-118.018;2023-10-09T07:27:25;20.40;;;16.52;;
50367;SDS011;36281;34.132;-118.018;2023-10-09T07:30:15;21.48;;;16.67;;
50367;SDS011;36281;34.132;-118.018;2023-10-09T07:32:58;22.13;;;16.63;;
50367;SDS011;36281;34.132;-118.018;2023-10-09T07:35:41;19.27;;;16.33;;
50367;SDS011;36281;34.132;-118.018;2023-10-09T07:38:11;21.85;;;16.23;;
50367;SDS011;36281;34.132;-118.018;2023-10-09T07:40:42;20.20;;;15.98;;
50367;SDS011;36281;34.132;-118.018;2023-10-09T07:43:29;20.23;;;17.05;;
50367;SDS011;36281;34.132;-118.018;2023-10-09T07:46:14;20.90;;;16.95;;
50367;SDS011;36281;34.132;-118.018;2023-10-09T07:49:04;20.55;;;16.10;;
50367;SDS011;36281;34.132;-118.018;2023-10-09T07:51:37;23.10;;;16.25;;
50367;SDS011;36281;34.132;-118.018;2023-10-09T07:54:11;19.35;;;16.05;;
50367;SDS011;36281;34.132;-118.018;2023-10-09T07:56:51;22.35;;;17.15;;
50367;SDS011;36281;34.132;-118.018;2023-10-09T07:59:21;22.80;;;16.95;;
50367;SDS011;36281;34.132;-118.018;2023-10-09T08:01:53;19.85;;;16.77;;
50367;SDS011;36281;34.132;-118.018;2023-10-09T08:04:31;20.10;;;16.15;;
50367;SDS011;36281;34.132;-118.018;2023-10-09T08:07:26;20.65;;;16.33;;
50367;SDS011;36281;34.132;-118.018;2023-10-09T08:10:22;21.60;;;17.40;;
50367;SDS011;36281;34.132;-118.018;2023-10-09T08:12:51;21.58;;;16.67;;
50367;SDS011;36281;34.132;-118.018;2023-10-09T08:15:20;21.05;;;17.23;;
50367;SDS011;36281;34.132;-118.018;2023-10-09T08:17:51;21.40;;;16.33;;
50367;SDS011;36281;34.132;-118.018;2023-10-09T08:20:22;22.60;;;17.65;;
50367;SDS011;36281;34.132;-118.018;2023-10-09T08:22:54;22.35;;;17.52;;
50367;SDS011;36281;34.132;-118.018;2023-10-09T08:25:24;26.70;;;18.58;;
50367;SDS011;36281;34.132;-118.018;2023-10-09T08:27:55;21.48;;;17.48;;
50367;SDS011;36281;34.132;-118.018;2023-10-09T08:30:47;23.38;;;17.10;;
50367;SDS011;36281;34.132;-118.018;2023-10-09T08:33:18;23.17;;;18.23;;
50367;SDS011;36281;34.132;-118.018;2023-10-09T08:35:56;22.15;;;18.27;;
50367;SDS011;36281;34.132;-118.018;2023-10-09T08:38:35;22.27;;;18.13;;
50367;SDS011;36281;34.132;-118.018;2023-10-09T08:41:07;24.95;;;19.05;;
50367;SDS011;36281;34.132;-118.018;2023-10-09T08:43:47;25.35;;;20.10;;
50367;SDS011;36281;34.132;-118.018;2023-10-09T08:46:21;23.60;;;18.42;;
50367;SDS011;36281;34.132;-118.018;2023-10-09T08:48:52;27.40;;;19.75;;
50367;SDS011;36281;34.132;-118.018;2023-10-09T08:51:24;23.30;;;18.83;;
50367;SDS011;36281;34.132;-118.018;2023-10-09T08:53:53;26.38;;;19.52;;
50367;SDS011;36281;34.132;-118.018;2023-10-09T08:56:23;24.50;;;18.13;;
50367;SDS011;36281;34.132;-118.018;2023-10-09T08:58:52;25.73;;;19.15;;
50367;SDS011;36281;34.132;-118.018;2023-10-09T09:01:22;23.67;;;18.58;;
50367;SDS011;36281;34.132;-118.018;2023-10-09T09:03:55;25.77;;;19.10;;
50367;SDS011;36281;34.132;-118.018;2023-10-09T09:06:24;27.20;;;19.20;;
50367;SDS011;36281;34.132;-118.018;2023-10-09T09:08:54;25.45;;;20.05;;
50367;SDS011;36281;34.132;-118.018;2023-10-09T09:11:42;24.48;;;19.60;;
50367;SDS011;36281;34.132;-118.018;2023-10-09T09:14:20;24.90;;;20.35;;
50367;SDS011;36281;34.132;-118.018;2023-10-09T09:17:05;24.45;;;19.50;;
50367;SDS011;36281;34.132;-118.018;2023-10-09T09:19:40;23.52;;;19.70;;
50367;SDS011;36281;34.132;-118.018;2023-10-09T09:22:10;26.85;;;20.85;;
50367;SDS011;36281;34.132;-118.018;2023-10-09T09:24:40;25.65;;;19.98;;
50367;SDS011;36281;34.132;-118.018;2023-10-09T09:30:22;30.75;;;20.45;;
50367;SDS011;36281;34.132;-118.018;2023-10-09T09:32:52;25.90;;;19.50;;
50367;SDS011;36281;34.132;-118.018;2023-10-09T09:35:41;23.33;;;19.35;;
50367;SDS011;36281;34.132;-118.018;2023-10-09T09:38:26;25.88;;;19.98;;
50367;SDS011;36281;34.132;-118.018;2023-10-09T09:40:56;26.73;;;20.65;;
50367;SDS011;36281;34.132;-118.018;2023-10-09T09:43:30;29.08;;;20.85;;
50367;SDS011;36281;34.132;-118.018;2023-10-09T09:46:03;24.63;;;20.13;;
50367;SDS011;36281;34.132;-118.018;2023-10-09T09:48:37;27.85;;;20.95;;
50367;SDS011;36281;34.132;-118.018;2023-10-09T09:51:14;25.83;;;19.85;;
50367;SDS011;36281;34.132;-118.018;2023-10-09T09:53:45;26.20;;;20.17;;
50367;SDS011;36281;34.132;-118.018;2023-10-09T09:56:15;28.55;;;20.33;;
50367;SDS011;36281;34.132;-118.018;2023-10-09T09:58:50;24.20;;;20.15;;
50367;SDS011;36281;34.132;-118.018;2023-10-09T10:01:26;27.75;;;22.05;;
50367;SDS011;36281;34.132;-118.018;2023-10-09T10:04:00;28.13;;;20.85;;
50367;SDS011;36281;34.132;-118.018;2023-10-09T10:06:36;28.60;;;20.58;;
50367;SDS011;36281;34.132;-118.018;2023-10-09T10:09:08;25.30;;;19.48;;
50367;SDS011;36281;34.132;-118.018;2023-10-09T10:11:43;22.42;;;18.85;;
50367;SDS011;36281;34.132;-118.018;2023-10-09T10:17:02;25.33;;;20.60;;
50367;SDS011;36281;34.132;-118.018;2023-10-09T10:22:46;26.35;;;19.92;;
50367;SDS011;36281;34.132;-118.018;2023-10-09T10:25:34;25.50;;;20.88;;
50367;SDS011;36281;34.132;-118.018;2023-10-09T10:28:16;28.20;;;20.38;;
50367;SDS011;36281;34.132;-118.018;2023-10-09T10:31:05;26.42;;;20.33;;
50367;SDS011;36281;34.132;-118.018;2023-10-09T10:36:38;28.23;;;21.10;;
50367;SDS011;36281;34.132;-118.018;2023-10-09T10:39:12;29.55;;;21.58;;
50367;SDS011;36281;34.132;-118.018;2023-10-09T10:41:52;27.10;;;21.33;;
50367;SDS011;36281;34.132;-118.018;2023-10-09T10:44:26;26.85;;;21.85;;
50367;SDS011;36281;34.132;-118.018;2023-10-09T10:47:08;28.63;;;21.42;;
50367;SDS011;36281;34.132;-118.018;2023-10-09T10:49:52;29.98;;;21.58;;
50367;SDS011;36281;34.132;-118.018;2023-10-09T10:52:48;24.75;;;21.33;;
50367;SDS011;36281;34.132;-118.018;2023-10-09T10:55:27;27.70;;;21.10;;
50367;SDS011;36281;34.132;-118.018;2023-10-09T10:57:59;28.75;;;21.20;;
50367;SDS011;36281;34.132;-118.018;2023-10-09T11:00:41;30.08;;;21.50;;
50367;SDS011;36281;34.132;-118.018;2023-10-09T11:03:25;26.48;;;20.65;;
50367;SDS011;36281;34.132;-118.018;2023-10-09T11:06:03;25.73;;;21.38;;
50367;SDS011;36281;34.132;-118.018;2023-10-09T11:08:43;26.55;;;21.05;;
50367;SDS011;36281;34.132;-118.018;2023-10-09T11:11:24;26.48;;;20.83;;
50367;SDS011;36281;34.132;-118.018;2023-10-09T11:14:08;29.43;;;22.27;;
50367;SDS011;36281;34.132;-118.018;2023-10-09T11:16:42;27.65;;;20.63;;
50367;SDS011;36281;34.132;-118.018;2023-10-09T11:19:20;28.98;;;20.95;;
50367;SDS011;36281;34.132;-118.018;2023-10-09T11:21:59;28.15;;;20.38;;
50367;SDS011;36281;34.132;-118.018;2023-10-09T11:24:34;27.20;;;21.40;;
50367;SDS011;36281;34.132;-118.018;2023-10-09T11:27:06;29.20;;;21.75;;
50367;SDS011;36281;34.132;-118.018;2023-10-09T11:29:49;28.75;;;21.33;;
50367;SDS011;36281;34.132;-118.018;2023-10-09T11:32:19;28.50;;;20.80;;
50367;SDS011;36281;34.132;-118.018;2023-10-09T11:37:43;31.48;;;21.70;;
50367;SDS011;36281;34.132;-118.018;2023-10-09T11:40:27;30.23;;;22.27;;
50367;SDS011;36281;34.132;-118.018;2023-10-09T11:43:19;27.38;;;21.27;;
50367;SDS011;36281;34.132;-118.018;2023-10-09T11:46:13;28.50;;;21.95;;
50367;SDS011;36281;34.132;-118.018;2023-10-09T11:49:04;30.05;;;21.13;;
50367;SDS011;36281;34.132;-118.018;2023-10-09T11:51:48;30.02;;;21.17;;
50367;SDS011;36281;34.132;-118.018;2023-10-09T11:54:35;30.17;;;20.83;;
50367;SDS011;36281;34.132;-118.018;2023-10-09T11:57:04;28.58;;;20.27;;
50367;SDS011;36281;34.132;-118.018;2023-10-09T11:59:35;28.08;;;20.30;;
50367;SDS011;36281;34.132;-118.018;2023-10-09T12:02:07;28.58;;;21.42;;
50367;SDS011;36281;34.132;-118.018;2023-10-09T12:04:40;31.20;;;22.45;;
50367;SDS011;36281;34.132;-118.018;2023-10-09T12:07:12;26.60;;;20.67;;
50367;SDS011;36281;34.132;-118.018;2023-10-09T12:09:41;26.73;;;21.58;;
50367;SDS011;36281;34.132;-118.018;2023-10-09T12:12:11;27.67;;;20.23;;
50367;SDS011;36281;34.132;-118.018;2023-10-09T12:14:41;25.77;;;21.17;;
50367;SDS011;36281;34.132;-118.018;2023-10-09T12:17:11;28.88;;;20.10;;
50367;SDS011;36281;34.132;-118.018;2023-10-09T12:19:40;24.52;;;19.70;;
50367;SDS011;36281;34.132;-118.018;2023-10-09T12:22:10;29.23;;;20.10;;
50367;SDS011;36281;34.132;-118.018;2023-10-09T12:24:43;28.40;;;19.92;;
50367;SDS011;36281;34.132;-118.018;2023-10-09T12:27:13;26.60;;;20.10;;
50367;SDS011;36281;34.132;-118.018;2023-10-09T12:29:44;27.23;;;20.95;;
50367;SDS011;36281;34.132;-118.018;2023-10-09T12:32:16;27.55;;;20.23;;
50367;SDS011;36281;34.132;-118.018;2023-10-09T12:34:48;25.35;;;19.55;;
50367;SDS011;36281;34.132;-118.018;2023-10-09T12:37:18;26.58;;;20.05;;
50367;SDS011;36281;34.132;-118.018;2023-10-09T12:39:48;27.02;;;19.20;;
50367;SDS011;36281;34.132;-118.018;2023-10-09T12:42:17;29.95;;;20.85;;
50367;SDS011;36281;34.132;-118.018;2023-10-09T12:44:49;28.13;;;19.63;;
50367;SDS011;36281;34.132;-118.018;2023-10-09T12:47:19;27.20;;;20.65;;
50367;SDS011;36281;34.132;-118.018;2023-10-09T12:49:48;27.80;;;20.55;;
50367;SDS011;36281;34.132;-118.018;2023-10-09T12:52:19;32.13;;;21.05;;
50367;SDS011;36281;34.132;-118.018;2023-10-09T12:54:48;31.77;;;21.10;;
50367;SDS011;36281;34.132;-118.018;2023-10-09T12:57:18;27.35;;;19.23;;
50367;SDS011;36281;34.132;-118.018;2023-10-09T12:59:49;25.08;;;19.30;;
50367;SDS011;36281;34.132;-118.018;2023-10-09T13:02:19;28.35;;;20.40;;
50367;SDS011;36281;34.132;-118.018;2023-10-09T13:04:57;25.55;;;19.42;;
50367;SDS011;36281;34.132;-118.018;2023-10-09T13:07:28;26.83;;;19.48;;
50367;SDS011;36281;34.132;-118.018;2023-10-09T13:09:58;29.40;;;20.15;;
50367;SDS011;36281;34.132;-118.018;2023-10-09T13:12:39;30.20;;;20.08;;
50367;SDS011;36281;34.132;-118.018;2023-10-09T13:15:12;28.70;;;19.65;;
50367;SDS011;36281;34.132;-118.018;2023-10-09T13:17:43;25.02;;;19.63;;
50367;SDS011;36281;34.132;-118.018;2023-10-09T13:20:12;27.63;;;18.90;;
50367;SDS011;36281;34.132;-118.018;2023-10-09T13:22:42;26.63;;;18.52;;
50367;SDS011;36281;34.132;-118.018;2023-10-09T13:25:14;28.30;;;19.48;;
50367;SDS011;36281;34.132;-118.018;2023-10-09T13:30:37;24.77;;;18.67;;
50367;SDS011;36281;34.132;-118.018;2023-10-09T13:33:17;27.27;;;19.80;;
50367;SDS011;36281;34.132;-118.018;2023-10-09T13:35:50;26.65;;;19.23;;
50367;SDS011;36281;34.132;-118.018;2023-10-09T13:38:22;30.55;;;20.30;;
50367;SDS011;36281;34.132;-118.018;2023-10-09T13:40:57;26.10;;;19.42;;
50367;SDS011;36281;34.132;-118.018;2023-10-09T13:43:29;30.42;;;19.95;;
50367;SDS011;36281;34.132;-118.018;2023-10-09T13:46:01;37.13;;;24.13;;
50367;SDS011;36281;34.132;-118.018;2023-10-09T13:48:34;39.53;;;25.27;;
50367;SDS011;36281;34.132;-118.018;2023-10-09T13:51:10;38.72;;;26.25;;
50367;SDS011;36281;34.132;-118.018;2023-10-09T13:53:45;44.55;;;28.85;;
50367;SDS011;36281;34.132;-118.018;2023-10-09T13:56:16;44.40;;;29.70;;
50367;SDS011;36281;34.132;-118.018;2023-10-09T13:58:47;49.20;;;31.40;;
50367;SDS011;36281;34.132;-118.018;2023-10-09T14:01:23;47.95;;;30.33;;
50367;SDS011;36281;34.132;-118.018;2023-10-09T14:03:55;52.25;;;33.45;;
50367;SDS011;36281;34.132;-118.018;2023-10-09T14:06:27;53.83;;;32.92;;
50367;SDS011;36281;34.132;-118.018;2023-10-09T14:09:03;52.88;;;33.15;;
50367;SDS011;36281;34.132;-118.018;2023-10-09T14:11:34;55.45;;;34.45;;
50367;SDS011;36281;34.132;-118.018;2023-10-09T14:14:09;55.75;;;34.53;;
50367;SDS011;36281;34.132;-118.018;2023-10-09T14:16:44;62.63;;;34.15;;
50367;SDS011;36281;34.132;-118.018;2023-10-09T14:19:15;54.60;;;33.83;;
50367;SDS011;36281;34.132;-118.018;2023-10-09T14:21:49;54.92;;;33.47;;
50367;SDS011;36281;34.132;-118.018;2023-10-09T14:24:19;55.42;;;33.35;;
50367;SDS011;36281;34.132;-118.018;2023-10-09T14:26:54;54.80;;;33.30;;
50367;SDS011;36281;34.132;-118.018;2023-10-09T14:29:25;55.35;;;34.30;;
50367;SDS011;36281;34.132;-118.018;2023-10-09T14:31:56;51.75;;;33.35;;
50367;SDS011;36281;34.132;-118.018;2023-10-09T14:34:28;51.28;;;32.85;;
50367;SDS011;36281;34.132;-118.018;2023-10-09T14:37:04;52.23;;;32.17;;
50367;SDS011;36281;34.132;-118.018;2023-10-09T14:42:09;52.58;;;33.47;;
50367;SDS011;36281;34.132;-118.018;2023-10-09T14:44:38;48.85;;;32.13;;
50367;SDS011;36281;34.132;-118.018;2023-10-09T14:47:12;54.42;;;34.45;;
50367;SDS011;36281;34.132;-118.018;2023-10-09T14:49:46;52.42;;;33.33;;
50367;SDS011;36281;34.132;-118.018;2023-10-09T14:52:19;46.78;;;32.35;;
50367;SDS011;36281;34.132;-118.018;2023-10-09T14:54:50;49.47;;;31.80;;
50367;SDS011;36281;34.132;-118.018;2023-10-09T14:57:21;50.03;;;33.58;;
50367;SDS011;36281;34.132;-118.018;2023-10-09T14:59:50;54.40;;;33.15;;
50367;SDS011;36281;34.132;-118.018;2023-10-09T15:02:24;54.67;;;33.80;;
50367;SDS011;36281;34.132;-118.018;2023-10-09T15:04:58;51.13;;;31.38;;